Time;durP1;ratioP1;P1;durP2;ratioP2;P2;SDS_P1;SDS_P2;PMS_P1;PMS_P2;Temp;Humidity;BMP_temperature;BMP_pressure;BME280_temperature;BME280_humidity;BME280_pressure;Samples;Min_cycle;Max_cycle;Signal;HPM_P1;HPM_P2
2021/12/09 00:01:24;;;;;;;11.90;8.45;;;2.10;99.90;;;;;;5156332;27;20046;-79
2021/12/09 00:03:54;;;;;;;14.23;9.57;;;2.10;99.90;;;;;;5156693;27;20556;-78
2021/12/09 00:06:24;;;;;;;11.98;9.07;;;2.00;99.90;;;;;;5155986;27;20101;-79
2021/12/09 00:08:50;;;;;;;14.93;8.93;;;2.00;99.90;;;;;;5157566;27;20071;-79
2021/12/09 00:11:16;;;;;;;12.40;9.07;;;2.00;99.90;;;;;;5156051;27;20043;-79
2021/12/09 00:13:42;;;;;;;13.50;9.10;;;1.90;99.90;;;;;;5156596;27;20046;-79
2021/12/09 00:16:09;;;;;;;13.10;9.27;;;1.90;99.90;;;;;;5137802;27;20039;-79
2021/12/09 00:18:34;;;;;;;14.15;8.60;;;1.80;99.90;;;;;;5157183;27;20054;-79
2021/12/09 00:21:00;;;;;;;12.90;8.95;;;1.90;99.90;;;;;;5137867;27;20383;-74
2021/12/09 00:23:26;;;;;;;16.30;9.32;;;1.90;99.90;;;;;;5156560;27;20042;-78
2021/12/09 00:25:51;;;;;;;14.82;8.82;;;1.90;99.90;;;;;;5156386;27;20046;-79
2021/12/09 00:28:17;;;;;;;13.25;9.15;;;2.00;99.90;;;;;;5155921;27;20122;-79
2021/12/09 00:30:43;;;;;;;13.25;9.50;;;1.90;99.90;;;;;;5156698;27;20051;-79
2021/12/09 00:33:10;;;;;;;13.60;9.75;;;1.90;99.90;;;;;;5156192;27;20494;-79
2021/12/09 00:35:46;;;;;;;11.95;9.20;;;1.90;99.90;;;;;;5156012;27;20427;-79
2021/12/09 00:38:20;;;;;;;13.43;9.90;;;1.90;99.90;;;;;;5155865;27;20482;-80
2021/12/09 00:40:47;;;;;;;12.55;8.90;;;1.90;99.90;;;;;;5156424;27;20490;-79
2021/12/09 00:43:13;;;;;;;13.98;9.38;;;1.90;99.90;;;;;;5155947;27;20047;-79
2021/12/09 00:45:39;;;;;;;13.15;9.73;;;1.80;99.90;;;;;;5137410;27;20057;-79
2021/12/09 00:48:05;;;;;;;14.88;9.88;;;1.80;99.90;;;;;;5155785;27;20039;-76
2021/12/09 00:50:31;;;;;;;15.18;10.30;;;1.80;99.90;;;;;;5155583;27;20054;-79
2021/12/09 00:52:56;;;;;;;15.13;10.80;;;1.80;99.90;;;;;;5156219;27;20133;-80
2021/12/09 00:55:22;;;;;;;15.10;10.48;;;1.80;99.90;;;;;;5136191;27;20035;-79
2021/12/09 00:57:48;;;;;;;14.73;9.50;;;1.80;99.90;;;;;;5155891;27;20041;-79
2021/12/09 01:00:20;;;;;;;19.95;10.35;;;1.70;99.90;;;;;;5155257;27;20038;-78
2021/12/09 01:02:46;;;;;;;13.45;9.80;;;1.70;99.90;;;;;;5155969;27;20475;-79
2021/12/09 01:05:12;;;;;;;13.23;10.18;;;1.70;99.90;;;;;;5154531;27;20057;-79
2021/12/09 01:07:39;;;;;;;15.18;10.18;;;1.60;99.90;;;;;;5155316;27;20132;-79
2021/12/09 01:10:08;;;;;;;13.38;10.18;;;1.50;99.90;;;;;;5155689;27;20054;-75
2021/12/09 01:12:34;;;;;;;12.85;10.38;;;1.50;99.90;;;;;;5156040;27;20054;-79
2021/12/09 01:15:00;;;;;;;14.65;10.55;;;1.50;99.90;;;;;;5155701;27;20047;-79
2021/12/09 01:17:26;;;;;;;15.07;11.40;;;1.50;99.90;;;;;;5154992;27;20039;-79
2021/12/09 01:19:53;;;;;;;16.75;11.13;;;1.50;99.90;;;;;;5155817;27;20039;-79
2021/12/09 01:22:20;;;;;;;18.23;11.75;;;1.60;99.90;;;;;;5136879;27;20483;-79
2021/12/09 01:24:46;;;;;;;15.95;11.30;;;1.50;99.90;;;;;;5137217;27;20042;-78
2021/12/09 01:27:12;;;;;;;14.90;10.88;;;1.50;99.90;;;;;;5136413;27;20046;-78
2021/12/09 01:29:41;;;;;;;15.45;11.30;;;1.50;99.90;;;;;;5153885;27;20122;-78
2021/12/09 01:32:10;;;;;;;14.13;11.20;;;1.50;99.90;;;;;;5155342;27;20054;-79
2021/12/09 01:34:37;;;;;;;16.35;11.45;;;1.50;99.90;;;;;;5155166;27;20050;-77
2021/12/09 01:37:04;;;;;;;15.48;11.40;;;1.50;99.90;;;;;;5155148;27;20117;-77
2021/12/09 01:39:31;;;;;;;12.40;10.13;;;1.50;99.90;;;;;;5154140;27;20090;-79
2021/12/09 01:41:58;;;;;;;18.60;11.20;;;1.40;99.90;;;;;;5154814;27;20050;-79
2021/12/09 01:44:26;;;;;;;19.48;13.60;;;1.30;99.90;;;;;;5136617;27;20057;-79
2021/12/09 01:46:52;;;;;;;17.02;11.35;;;1.30;99.90;;;;;;5154941;27;20034;-79
2021/12/09 01:49:18;;;;;;;20.27;13.02;;;1.30;99.90;;;;;;5154555;27;20125;-79
2021/12/09 01:51:46;;;;;;;18.58;12.70;;;1.40;99.90;;;;;;5154878;27;20051;-79
2021/12/09 01:54:13;;;;;;;19.45;14.13;;;1.30;99.90;;;;;;5154097;27;20079;-79
2021/12/09 01:56:39;;;;;;;19.40;13.30;;;1.30;99.90;;;;;;5154550;27;20066;-79
2021/12/09 01:59:06;;;;;;;18.80;13.38;;;1.30;99.90;;;;;;5136240;27;20034;-77
2021/12/09 02:01:34;;;;;;;20.23;13.60;;;1.30;99.90;;;;;;5153805;27;20051;-79
2021/12/09 02:04:01;;;;;;;19.08;14.07;;;1.30;99.90;;;;;;5154408;27;20050;-79
2021/12/09 02:06:27;;;;;;;16.42;12.98;;;1.40;99.90;;;;;;5154153;27;20054;-79
2021/12/09 02:08:54;;;;;;;20.75;13.15;;;1.40;99.90;;;;;;5155013;27;20055;-79
2021/12/09 02:11:20;;;;;;;19.58;13.23;;;1.40;99.90;;;;;;5153917;27;20070;-79
2021/12/09 02:13:50;;;;;;;19.23;13.63;;;1.50;99.90;;;;;;5153941;27;20045;-79
2021/12/09 02:16:17;;;;;;;21.50;14.35;;;1.50;99.90;;;;;;5154061;27;20176;-74
2021/12/09 02:18:43;;;;;;;21.17;13.38;;;1.60;99.90;;;;;;5154671;27;20158;-79
2021/12/09 02:21:16;;;;;;;18.52;13.25;;;1.50;99.90;;;;;;5154132;27;20099;-79
2021/12/09 02:23:45;;;;;;;17.65;13.27;;;1.60;99.90;;;;;;5153633;27;20046;-80
2021/12/09 02:26:12;;;;;;;18.95;13.68;;;1.60;99.90;;;;;;5154277;27;20039;-79
2021/12/09 02:28:40;;;;;;;17.50;12.48;;;1.60;99.90;;;;;;5135625;27;20054;-79
2021/12/09 02:31:05;;;;;;;20.08;13.10;;;1.50;99.90;;;;;;5154199;27;20046;-79
2021/12/09 02:33:31;;;;;;;20.60;13.57;;;1.60;99.90;;;;;;5152701;27;20087;-79
2021/12/09 02:35:57;;;;;;;18.88;14.00;;;1.50;99.90;;;;;;5135191;27;20039;-77
2021/12/09 02:38:23;;;;;;;20.15;14.25;;;1.60;99.90;;;;;;5153668;27;20046;-78
2021/12/09 02:40:49;;;;;;;21.17;12.82;;;1.50;99.90;;;;;;5153599;27;20047;-79
2021/12/09 02:43:22;;;;;;;21.40;14.50;;;1.50;99.90;;;;;;5153968;27;20510;-79
2021/12/09 02:45:52;;;;;;;20.20;14.57;;;1.70;99.90;;;;;;5153041;27;20042;-78
2021/12/09 02:48:20;;;;;;;20.50;14.02;;;1.50;99.90;;;;;;5119282;27;20076;-79
2021/12/09 02:50:46;;;;;;;17.20;12.85;;;1.50;99.90;;;;;;5134281;27;20046;-79
2021/12/09 02:53:12;;;;;;;17.80;12.65;;;1.50;99.90;;;;;;5135946;27;20100;-79
2021/12/09 02:55:38;;;;;;;17.52;12.55;;;1.40;99.90;;;;;;5152379;27;20074;-79
2021/12/09 02:58:04;;;;;;;16.95;14.00;;;1.30;99.90;;;;;;5153928;27;20524;-79
2021/12/09 03:00:31;;;;;;;24.00;13.75;;;1.30;99.90;;;;;;5153367;27;20047;-79
2021/12/09 03:02:58;;;;;;;17.75;14.32;;;1.40;99.90;;;;;;5154084;27;20046;-79
2021/12/09 03:05:25;;;;;;;18.80;15.30;;;1.30;99.90;;;;;;5135046;27;20051;-74
2021/12/09 03:07:51;;;;;;;19.88;14.85;;;1.30;99.90;;;;;;5153667;27;20123;-79
2021/12/09 03:10:22;;;;;;;19.20;15.45;;;1.30;99.90;;;;;;5153484;27;20135;-79
2021/12/09 03:12:53;;;;;;;22.63;15.15;;;1.30;99.90;;;;;;5153614;27;20038;-79
2021/12/09 03:15:20;;;;;;;20.58;15.23;;;1.30;99.90;;;;;;5153402;27;20104;-78
2021/12/09 03:17:47;;;;;;;22.20;16.40;;;1.30;99.90;;;;;;5134161;27;20623;-79
2021/12/09 03:20:15;;;;;;;21.45;17.13;;;1.30;99.90;;;;;;5153843;27;20050;-79
2021/12/09 03:22:42;;;;;;;21.38;17.40;;;1.30;99.90;;;;;;5135176;27;20050;-79
2021/12/09 03:25:10;;;;;;;22.63;17.00;;;1.20;99.90;;;;;;5153324;27;20057;-79
2021/12/09 03:27:37;;;;;;;21.08;16.83;;;1.20;99.90;;;;;;5151580;27;20042;-79
2021/12/09 03:30:06;;;;;;;23.27;16.85;;;1.20;99.90;;;;;;5134487;27;20046;-78
2021/12/09 03:32:32;;;;;;;21.05;17.55;;;1.20;99.90;;;;;;5152688;27;20082;-78
2021/12/09 03:34:58;;;;;;;22.48;17.98;;;1.20;99.90;;;;;;5134729;27;20077;-78
2021/12/09 03:37:27;;;;;;;25.90;18.05;;;1.30;99.90;;;;;;5152002;27;20075;-78
2021/12/09 03:39:54;;;;;;;25.95;18.58;;;1.20;99.90;;;;;;5152823;27;20047;-79
2021/12/09 03:42:24;;;;;;;24.95;18.08;;;1.30;99.90;;;;;;5132629;28;20051;-78
2021/12/09 03:44:51;;;;;;;26.38;17.67;;;1.20;99.90;;;;;;5114035;28;20531;-78
2021/12/09 03:47:20;;;;;;;22.35;16.70;;;1.30;99.90;;;;;;5133221;27;20402;-79
2021/12/09 03:49:46;;;;;;;22.88;17.42;;;1.20;99.90;;;;;;5152998;27;20086;-79
2021/12/09 03:52:13;;;;;;;25.63;18.05;;;1.20;99.90;;;;;;5153015;27;20502;-78
2021/12/09 03:54:40;;;;;;;25.65;18.55;;;1.10;99.90;;;;;;5153002;27;20484;-79
2021/12/09 03:57:07;;;;;;;23.83;19.17;;;1.10;99.90;;;;;;5134861;27;20046;-78
2021/12/09 03:59:32;;;;;;;25.80;18.98;;;1.10;99.90;;;;;;5151925;27;20521;-73
2021/12/09 04:01:58;;;;;;;26.95;19.33;;;1.20;99.90;;;;;;5152669;27;20046;-77
2021/12/09 04:04:25;;;;;;;25.67;19.17;;;1.10;99.90;;;;;;5156328;27;20049;-77
2021/12/09 04:06:52;;;;;;;26.15;18.73;;;1.10;99.90;;;;;;5156462;27;20046;-79
2021/12/09 04:09:19;;;;;;;25.42;19.40;;;1.10;99.90;;;;;;5156463;27;20049;-79
2021/12/09 04:11:46;;;;;;;27.15;19.42;;;1.20;99.90;;;;;;5156414;27;20491;-79
2021/12/09 04:14:12;;;;;;;27.75;20.58;;;1.20;99.90;;;;;;5156613;27;20121;-79
2021/12/09 04:16:38;;;;;;;26.42;20.05;;;1.20;99.90;;;;;;5156427;27;20046;-79
2021/12/09 04:19:07;;;;;;;27.67;20.73;;;1.10;99.90;;;;;;5155378;27;20064;-78
2021/12/09 04:21:34;;;;;;;30.02;21.20;;;1.10;99.90;;;;;;5156367;27;20082;-79
2021/12/09 04:24:06;;;;;;;28.05;20.52;;;1.20;99.90;;;;;;5155091;27;20056;-78
2021/12/09 04:26:32;;;;;;;28.52;19.92;;;1.10;99.90;;;;;;5156390;27;20398;-80
2021/12/09 04:28:57;;;;;;;23.55;18.10;;;1.10;99.90;;;;;;5155329;27;20118;-79
2021/12/09 04:31:23;;;;;;;24.30;17.05;;;1.10;99.90;;;;;;5156337;27;20031;-79
2021/12/09 04:33:49;;;;;;;22.85;18.20;;;1.00;99.90;;;;;;5156145;27;20125;-79
2021/12/09 04:36:14;;;;;;;27.52;18.75;;;1.00;99.90;;;;;;5155993;27;20038;-79
2021/12/09 04:38:40;;;;;;;23.60;18.42;;;1.00;99.90;;;;;;5155836;27;20035;-74
2021/12/09 04:41:06;;;;;;;25.45;18.42;;;0.90;99.90;;;;;;5155182;27;20062;-77
2021/12/09 04:43:32;;;;;;;24.77;18.80;;;0.90;99.90;;;;;;5156525;27;20046;-79
2021/12/09 04:45:59;;;;;;;26.42;19.10;;;0.90;99.90;;;;;;5137828;27;20391;-80
2021/12/09 04:48:26;;;;;;;27.15;19.60;;;0.90;99.90;;;;;;5137819;27;20046;-79
2021/12/09 04:50:51;;;;;;;24.25;18.65;;;0.80;99.90;;;;;;5152602;27;20107;-79
2021/12/09 04:53:17;;;;;;;24.63;19.10;;;0.80;99.90;;;;;;5134684;27;20046;-80
2021/12/09 04:55:43;;;;;;;25.20;18.92;;;0.80;99.90;;;;;;5155603;27;20053;-74
2021/12/09 04:58:08;;;;;;;25.08;19.60;;;0.70;99.90;;;;;;5156444;27;20460;-79
2021/12/09 05:00:38;;;;;;;27.27;20.13;;;0.70;99.90;;;;;;5155206;27;20074;-81
2021/12/09 05:03:13;;;;;;;28.60;19.95;;;0.70;99.90;;;;;;5154512;27;20098;-78
2021/12/09 05:05:45;;;;;;;27.05;20.75;;;0.70;99.90;;;;;;5156550;27;20053;-79
2021/12/09 05:08:14;;;;;;;30.50;20.73;;;0.70;99.90;;;;;;5137797;27;20039;-79
2021/12/09 05:11:06;;;;;;;28.45;19.75;;;0.70;99.90;;;;;;5155951;27;20499;-79
2021/12/09 05:13:34;;;;;;;26.67;19.05;;;0.70;99.90;;;;;;5155664;27;20050;-79
2021/12/09 05:16:00;;;;;;;29.92;20.35;;;0.70;99.90;;;;;;5154316;27;20052;-79
2021/12/09 05:18:29;;;;;;;27.50;20.80;;;0.60;99.90;;;;;;5155989;27;20082;-79
2021/12/09 05:20:55;;;;;;;30.23;21.52;;;0.60;99.90;;;;;;5155339;27;20475;-79
2021/12/09 05:23:22;;;;;;;27.85;21.25;;;0.60;99.90;;;;;;5155426;27;20050;-79
2021/12/09 05:25:48;;;;;;;31.05;22.85;;;0.60;99.90;;;;;;5155420;27;20038;-77
2021/12/09 05:28:18;;;;;;;28.02;21.95;;;0.60;99.90;;;;;;5137753;27;20498;-79
2021/12/09 05:33:30;;;;;;;29.08;22.42;;;0.60;99.90;;;;;;5155121;27;20046;-79
2021/12/09 05:35:56;;;;;;;31.15;23.58;;;0.60;99.90;;;;;;5155182;27;20043;-79
2021/12/09 05:38:22;;;;;;;33.75;25.70;;;0.60;99.90;;;;;;5155813;27;20039;-79
2021/12/09 05:40:48;;;;;;;32.08;23.83;;;0.60;99.90;;;;;;5155197;27;20050;-73
2021/12/09 05:43:15;;;;;;;36.35;24.92;;;0.60;99.90;;;;;;5154857;27;20043;-79
2021/12/09 05:45:43;;;;;;;35.40;25.65;;;0.60;99.90;;;;;;5155471;27;20479;-79
2021/12/09 05:48:12;;;;;;;36.38;25.85;;;0.60;99.90;;;;;;5154883;27;20042;-79
2021/12/09 05:50:39;;;;;;;37.75;25.73;;;0.60;99.90;;;;;;5155043;27;20096;-79
2021/12/09 05:53:05;;;;;;;35.83;25.73;;;0.60;99.90;;;;;;5154754;27;20050;-79
2021/12/09 05:55:32;;;;;;;37.10;24.80;;;0.50;99.90;;;;;;5136112;27;20080;-79
2021/12/09 05:57:58;;;;;;;37.08;25.65;;;0.50;99.90;;;;;;5154699;27;20043;-78
2021/12/09 06:00:24;;;;;;;35.88;25.20;;;0.50;99.90;;;;;;5155210;27;20452;-78
2021/12/09 06:02:49;;;;;;;40.25;25.27;;;0.50;99.90;;;;;;5136670;27;20046;-78
2021/12/09 06:05:15;;;;;;;35.50;25.05;;;0.50;99.90;;;;;;5153628;27;20039;-78
2021/12/09 06:07:41;;;;;;;34.95;24.23;;;0.50;99.90;;;;;;5154493;27;20395;-79
2021/12/09 06:10:07;;;;;;;39.33;25.50;;;0.40;99.90;;;;;;5154207;27;20046;-79
2021/12/09 06:12:34;;;;;;;35.08;25.92;;;0.40;99.90;;;;;;5154882;27;20039;-79
2021/12/09 06:15:00;;;;;;;35.70;24.65;;;0.40;99.90;;;;;;5154138;27;20517;-79
2021/12/09 06:17:26;;;;;;;36.72;26.00;;;0.40;99.90;;;;;;5154012;27;20038;-79
2021/12/09 06:19:52;;;;;;;37.25;25.70;;;0.50;99.90;;;;;;5154825;27;20111;-79
2021/12/09 06:22:17;;;;;;;36.88;25.98;;;0.30;99.90;;;;;;5154238;27;20495;-79
2021/12/09 06:24:45;;;;;;;34.78;26.00;;;0.30;99.90;;;;;;5154756;27;20042;-80
2021/12/09 06:27:10;;;;;;;34.72;26.38;;;0.30;99.90;;;;;;5153717;27;20057;-79
2021/12/09 06:29:36;;;;;;;37.05;27.17;;;0.30;99.90;;;;;;5154190;27;20047;-79
2021/12/09 06:32:03;;;;;;;38.15;27.25;;;0.30;99.90;;;;;;5135070;27;20081;-79
2021/12/09 06:34:29;;;;;;;36.60;26.92;;;0.30;99.90;;;;;;5137788;27;20087;-80
2021/12/09 06:36:55;;;;;;;38.05;25.92;;;0.30;99.90;;;;;;5136313;27;20042;-80
2021/12/09 06:39:21;;;;;;;37.13;26.65;;;0.30;99.90;;;;;;5154121;27;20171;-80
2021/12/09 06:41:47;;;;;;;37.83;25.83;;;0.40;99.90;;;;;;5153629;27;20432;-79
2021/12/09 06:44:12;;;;;;;34.22;24.80;;;0.40;99.90;;;;;;5153394;27;20046;-80
2021/12/09 06:46:39;;;;;;;32.42;25.13;;;0.40;99.90;;;;;;5119095;27;20045;-79
2021/12/09 06:49:05;;;;;;;34.22;26.08;;;0.30;99.90;;;;;;5135572;27;20475;-80
2021/12/09 06:51:31;;;;;;;35.97;26.38;;;0.30;99.90;;;;;;5154505;27;20065;-79
2021/12/09 06:53:58;;;;;;;32.92;25.42;;;0.30;99.90;;;;;;5153794;27;20487;-80
2021/12/09 06:56:25;;;;;;;37.70;25.88;;;0.30;99.90;;;;;;5118160;27;20049;-80
2021/12/09 06:58:51;;;;;;;38.20;24.80;;;0.30;99.90;;;;;;5154243;27;20047;-79
2021/12/09 07:01:16;;;;;;;37.42;26.65;;;0.30;99.90;;;;;;5135206;27;20129;-79
2021/12/09 07:03:42;;;;;;;38.88;27.08;;;0.30;99.90;;;;;;5135816;27;20038;-81
2021/12/09 07:06:11;;;;;;;36.30;26.85;;;0.20;99.90;;;;;;5152972;27;20068;-81
2021/12/09 07:08:45;;;;;;;39.20;27.00;;;0.20;99.90;;;;;;5154158;27;20043;-81
2021/12/09 07:11:11;;;;;;;39.83;29.55;;;0.30;99.90;;;;;;5135007;27;20055;-80
2021/12/09 07:13:37;;;;;;;40.55;29.95;;;0.30;99.90;;;;;;5135806;27;20494;-81
2021/12/09 07:16:03;;;;;;;39.70;30.10;;;0.30;99.90;;;;;;5152297;27;20043;-74
2021/12/09 07:18:30;;;;;;;43.45;30.80;;;0.30;99.90;;;;;;5152480;27;20068;-80
2021/12/09 07:20:56;;;;;;;44.55;30.83;;;0.40;99.90;;;;;;5135583;27;20429;-82
2021/12/09 07:23:22;;;;;;;43.60;29.73;;;0.40;99.90;;;;;;5152825;27;20459;-81
2021/12/09 07:25:48;;;;;;;40.05;29.23;;;0.40;99.90;;;;;;5153600;27;20059;-81
2021/12/09 07:28:14;;;;;;;40.00;28.63;;;0.50;99.90;;;;;;5152858;27;20046;-81
2021/12/09 07:30:40;;;;;;;45.75;29.65;;;0.50;99.90;;;;;;5151479;27;20051;-81
2021/12/09 07:33:06;;;;;;;44.97;28.95;;;0.50;99.90;;;;;;5153192;27;20428;-82
2021/12/09 07:35:31;;;;;;;44.55;27.98;;;0.60;99.90;;;;;;5134783;27;20043;-81
2021/12/09 07:37:58;;;;;;;39.50;27.20;;;0.60;99.90;;;;;;5154338;27;20038;-81
2021/12/09 07:40:24;;;;;;;39.53;27.40;;;0.60;99.90;;;;;;5156304;27;20046;-80
2021/12/09 07:42:50;;;;;;;36.25;25.33;;;0.70;99.90;;;;;;5157435;27;20455;-81
2021/12/09 07:45:17;;;;;;;36.15;25.77;;;0.70;99.90;;;;;;5121266;27;20042;-81
2021/12/09 07:47:44;;;;;;;39.00;26.25;;;0.70;99.90;;;;;;5157403;27;20051;-81
2021/12/09 07:50:13;;;;;;;38.13;27.05;;;0.70;99.90;;;;;;5156606;27;20476;-75
2021/12/09 07:52:41;;;;;;;40.38;28.48;;;0.60;99.90;;;;;;5157510;27;20058;-82
2021/12/09 07:55:09;;;;;;;35.88;29.42;;;0.60;99.90;;;;;;5154876;27;20047;-81
2021/12/09 07:57:35;;;;;;;39.08;29.60;;;0.70;99.90;;;;;;5138293;27;20066;-81
2021/12/09 08:00:03;;;;;;;39.08;28.02;;;0.70;99.90;;;;;;5150839;27;20690;-81
2021/12/09 08:02:28;;;;;;;37.92;27.52;;;0.70;99.90;;;;;;5151160;27;20103;-82
2021/12/09 08:04:54;;;;;;;37.67;26.05;;;0.70;99.90;;;;;;5151736;27;20043;-79
2021/12/09 08:07:20;;;;;;;34.30;26.38;;;0.70;99.90;;;;;;5153971;27;20043;-82
2021/12/09 08:09:46;;;;;;;37.90;25.20;;;0.80;99.90;;;;;;5135810;27;20171;-81
2021/12/09 08:12:12;;;;;;;36.85;24.25;;;0.80;99.90;;;;;;5154273;27;20125;-78
2021/12/09 08:14:37;;;;;;;35.35;23.98;;;0.80;99.90;;;;;;5129298;27;20078;-84
2021/12/09 08:17:33;;;;;;;36.20;23.48;;;0.80;99.90;;;;;;5151597;27;20050;-83
2021/12/09 08:19:59;;;;;;;33.20;22.50;;;0.90;99.90;;;;;;5135541;27;20455;-82
2021/12/09 08:22:25;;;;;;;35.38;22.00;;;0.90;99.90;;;;;;5151750;27;20151;-86
2021/12/09 08:24:55;;;;;;;37.15;23.17;;;0.90;99.90;;;;;;5153545;27;20268;-84
2021/12/09 08:27:22;;;;;;;32.35;23.70;;;0.90;99.90;;;;;;5152658;27;20046;-81
2021/12/09 08:29:48;;;;;;;30.23;22.58;;;1.00;99.90;;;;;;5121054;27;20459;-87
2021/12/09 08:32:13;;;;;;;33.83;23.98;;;1.00;99.90;;;;;;5132795;27;20067;-79
2021/12/09 08:34:39;;;;;;;38.38;24.23;;;1.00;99.90;;;;;;5132606;27;20077;-85
2021/12/09 08:37:05;;;;;;;31.88;22.95;;;1.10;99.90;;;;;;5152135;27;20119;-86
2021/12/09 08:39:31;;;;;;;35.78;23.67;;;1.10;99.90;;;;;;5134975;27;20448;-86
2021/12/09 08:41:57;;;;;;;36.53;23.58;;;1.10;99.90;;;;;;5153569;27;20399;-86
2021/12/09 08:44:23;;;;;;;36.58;22.13;;;1.10;99.90;;;;;;5151683;27;20394;-81
2021/12/09 08:46:49;;;;;;;31.10;21.05;;;1.10;99.90;;;;;;5134492;27;20050;-84
2021/12/09 08:49:15;;;;;;;27.85;19.65;;;1.20;99.90;;;;;;5154504;27;20039;-78
2021/12/09 08:51:41;;;;;;;27.65;19.70;;;1.20;99.90;;;;;;5156233;27;20057;-87
2021/12/09 08:54:07;;;;;;;23.70;17.65;;;1.30;99.90;;;;;;5155760;27;20050;-88
2021/12/09 08:56:36;;;;;;;27.05;16.13;;;1.30;99.90;;;;;;5155510;27;20047;-87
2021/12/09 08:59:04;;;;;;;21.48;16.40;;;1.40;99.90;;;;;;5156369;27;20035;-84
2021/12/09 09:01:30;;;;;;;23.35;15.90;;;1.40;99.90;;;;;;5137340;27;20167;-81
2021/12/09 09:03:56;;;;;;;21.90;15.70;;;1.50;99.90;;;;;;5137200;27;20095;-81
2021/12/09 09:06:22;;;;;;;20.35;15.00;;;1.50;99.90;;;;;;5155137;27;20034;-80
2021/12/09 09:08:51;;;;;;;21.80;14.38;;;1.60;99.90;;;;;;5156522;27;20046;-82
2021/12/09 09:11:17;;;;;;;25.10;14.68;;;1.70;99.90;;;;;;5155466;27;20053;-81
2021/12/09 09:13:43;;;;;;;20.08;13.98;;;1.70;99.90;;;;;;5155277;27;20046;-81
2021/12/09 09:16:09;;;;;;;23.05;14.13;;;1.80;99.90;;;;;;5137161;27;20074;-81
2021/12/09 09:18:35;;;;;;;19.13;13.23;;;1.80;99.90;;;;;;5155501;27;20042;-80
2021/12/09 09:21:00;;;;;;;17.45;12.48;;;1.90;99.90;;;;;;5155676;27;20042;-80
2021/12/09 09:23:26;;;;;;;17.70;12.40;;;1.90;99.90;;;;;;5155233;27;20043;-79
2021/12/09 09:25:52;;;;;;;18.45;12.35;;;2.00;99.90;;;;;;5155092;27;20072;-79
2021/12/09 09:28:18;;;;;;;16.90;12.00;;;2.10;99.90;;;;;;5155212;27;20457;-80
2021/12/09 09:30:52;;;;;;;17.83;11.90;;;2.20;99.90;;;;;;5155133;27;20191;-80
2021/12/09 09:33:20;;;;;;;17.20;11.43;;;2.20;99.90;;;;;;5155600;27;20082;-81
2021/12/09 09:35:46;;;;;;;15.75;11.55;;;2.20;99.90;;;;;;5154372;27;20545;-80
2021/12/09 09:38:15;;;;;;;15.70;12.25;;;2.30;99.90;;;;;;5155272;27;20043;-79
2021/12/09 09:40:51;;;;;;;15.25;11.13;;;2.30;99.90;;;;;;5154775;27;20383;-80
2021/12/09 09:43:32;;;;;;;18.08;11.15;;;2.30;99.90;;;;;;5119730;27;20089;-81
2021/12/09 09:45:59;;;;;;;;;;;2.40;99.90;;;;;;5155903;27;20047;-80
2021/12/09 09:48:25;;;;;;;17.92;12.20;;;2.40;99.90;;;;;;5137060;27;19918;-73
2021/12/09 09:50:51;;;;;;;14.63;11.63;;;2.40;99.90;;;;;;5154831;27;20051;-80
2021/12/09 09:53:17;;;;;;;15.02;11.77;;;2.40;99.90;;;;;;5154026;27;20126;-80
2021/12/09 09:55:46;;;;;;;14.13;11.00;;;2.50;99.90;;;;;;5154654;27;20050;-80
2021/12/09 09:58:13;;;;;;;14.05;10.68;;;2.50;99.90;;;;;;5136812;27;20489;-80
2021/12/09 10:00:38;;;;;;;13.57;10.38;;;2.50;99.90;;;;;;5153871;27;20042;-80
2021/12/09 10:03:10;;;;;;;17.88;10.93;;;2.60;99.90;;;;;;5155065;27;20755;-78
2021/12/09 10:05:38;;;;;;;14.38;10.02;;;2.60;99.90;;;;;;5154073;27;20575;-80
2021/12/09 10:08:06;;;;;;;13.27;9.43;;;2.80;99.90;;;;;;5154824;27;20042;-80
2021/12/09 10:10:32;;;;;;;16.90;9.93;;;2.90;99.90;;;;;;5153732;27;20407;-80
2021/12/09 10:13:06;;;;;;;14.35;9.48;;;3.00;99.90;;;;;;5154282;27;20167;-79
2021/12/09 10:15:41;;;;;;;13.02;9.43;;;3.00;99.90;;;;;;5132650;27;20046;-79
2021/12/09 10:18:08;;;;;;;13.10;9.05;;;3.20;99.90;;;;;;5154231;27;20043;-80
2021/12/09 10:20:52;;;;;;;13.77;8.65;;;3.30;99.90;;;;;;5153472;27;20091;-80
2021/12/09 10:23:42;;;;;;;11.18;8.38;;;3.40;99.90;;;;;;5154693;27;20067;-80
2021/12/09 10:26:12;;;;;;;12.90;8.40;;;3.50;99.90;;;;;;5154660;27;20060;-80
2021/12/09 10:28:40;;;;;;;12.68;8.68;;;3.60;99.90;;;;;;5154136;27;20038;-80
2021/12/09 10:31:16;;;;;;;13.32;7.85;;;3.80;99.90;;;;;;5135655;27;20055;-81
2021/12/09 10:34:04;;;;;;;14.30;7.57;;;3.90;99.90;;;;;;5154022;27;20047;-80
2021/12/09 10:36:57;;;;;;;16.48;7.72;;;4.00;99.90;;;;;;5133680;27;20085;-81
2021/12/09 10:39:25;;;;;;;12.75;7.82;;;4.00;99.90;;;;;;5146164;27;20091;-80
2021/12/09 10:41:52;;;;;;;14.25;7.75;;;4.00;99.90;;;;;;5153723;27;20514;-80
2021/12/09 10:44:49;;;;;;;12.43;7.80;;;4.10;99.90;;;;;;5154032;27;20129;-77
2021/12/09 10:52:54;;;;;;;13.48;8.57;;;4.00;99.90;;;;;;5132933;27;20549;-80
2021/12/09 10:55:26;;;;;;;9.80;7.90;;;4.00;99.90;;;;;;5138744;27;20104;-81
2021/12/09 10:58:05;;;;;;;13.55;9.15;;;3.90;99.90;;;;;;5153393;27;20495;-81
2021/12/09 11:00:36;;;;;;;12.15;8.52;;;3.90;99.90;;;;;;5154330;27;20042;-81
2021/12/09 11:03:04;;;;;;;11.30;8.48;;;3.90;99.90;;;;;;5153958;27;20053;-80
2021/12/09 11:05:31;;;;;;;10.70;8.35;;;4.00;99.90;;;;;;5154405;27;20393;-80
2021/12/09 11:08:22;;;;;;;13.57;9.20;;;4.00;99.90;;;;;;5134701;27;20039;-80
2021/12/09 11:10:52;;;;;;;12.85;8.90;;;4.00;99.90;;;;;;5116074;28;20117;-80
2021/12/09 11:13:21;;;;;;;12.40;8.00;;;4.10;99.90;;;;;;5134915;27;20046;-80
2021/12/09 11:15:56;;;;;;;11.90;8.75;;;4.10;99.90;;;;;;5136941;27;20047;-80
2021/12/09 11:18:36;;;;;;;12.45;8.45;;;4.20;99.90;;;;;;5142315;27;20391;-80
2021/12/09 11:21:05;;;;;;;13.23;8.77;;;4.20;99.90;;;;;;5157198;27;20085;-80
2021/12/09 11:23:36;;;;;;;12.43;8.63;;;4.20;99.90;;;;;;5157490;27;20074;-80
2021/12/09 11:29:26;;;;;;;15.20;9.50;;;4.20;99.90;;;;;;5153687;27;20054;-80
2021/12/09 11:32:20;;;;;;;13.18;8.80;;;4.20;99.90;;;;;;5157323;27;20099;-80
2021/12/09 11:40:25;;;;;;;13.45;8.85;;;4.20;99.90;;;;;;5157202;27;20095;-78
2021/12/09 11:42:56;;;;;;;12.63;9.48;;;4.20;99.90;;;;;;5149695;27;20056;-80
2021/12/09 11:45:25;;;;;;;15.48;9.85;;;4.30;99.90;;;;;;5136801;27;20088;-80
2021/12/09 11:47:54;;;;;;;14.38;8.98;;;4.30;99.90;;;;;;5136169;27;20046;-80
2021/12/09 11:50:24;;;;;;;14.55;9.45;;;4.30;99.90;;;;;;5136920;27;20070;-80
2021/12/09 11:52:52;;;;;;;13.15;9.10;;;4.30;99.90;;;;;;5136232;27;20047;-81
2021/12/09 11:55:21;;;;;;;13.82;9.10;;;4.20;99.90;;;;;;5136649;27;20047;-81
2021/12/09 11:58:01;;;;;;;14.27;9.27;;;4.20;99.90;;;;;;5156214;27;20118;-81
2021/12/09 12:16:02;;;;;;;14.52;9.90;;;4.00;99.90;;;;;;5118025;27;20062;-80
2021/12/09 12:21:27;;;;;;;18.60;10.90;;;4.10;99.90;;;;;;5154246;27;20054;-80
2021/12/09 12:40:21;;;;;;;18.45;12.35;;;4.30;99.90;;;;;;5156773;27;20407;-81
2021/12/09 12:42:55;;;;;;;14.80;10.95;;;4.30;99.90;;;;;;5156940;27;20049;-81
2021/12/09 12:45:51;;;;;;;17.85;11.82;;;4.30;99.90;;;;;;5137883;27;20364;-81
2021/12/09 12:51:33;;;;;;;18.80;12.40;;;4.30;99.90;;;;;;5152757;27;20061;-80
2021/12/09 12:54:18;;;;;;;16.73;11.38;;;4.30;99.90;;;;;;5155390;27;20047;-81
2021/12/09 12:56:54;;;;;;;20.27;12.35;;;4.20;99.90;;;;;;5155857;27;20053;-81
2021/12/09 12:59:23;;;;;;;18.50;11.75;;;4.30;99.90;;;;;;5156131;27;20457;-80
2021/12/09 13:02:11;;;;;;;17.25;11.23;;;4.30;99.90;;;;;;5137865;27;20046;-81
2021/12/09 13:05:11;;;;;;;22.50;12.25;;;4.30;99.90;;;;;;5156417;27;20440;-81
2021/12/09 13:11:15;;;;;;;18.30;12.98;;;4.20;99.90;;;;;;5155821;27;20129;-80
2021/12/09 13:16:35;;;;;;;19.38;13.50;;;4.20;99.90;;;;;;5154981;27;20099;-81
2021/12/09 13:19:10;;;;;;;17.27;11.80;;;4.20;99.90;;;;;;5155665;27;20047;-80
2021/12/09 13:21:58;;;;;;;20.20;13.02;;;4.20;99.90;;;;;;5155885;27;20491;-82
2021/12/09 13:24:59;;;;;;;17.40;11.85;;;4.30;99.90;;;;;;5155533;27;20095;-80
2021/12/09 13:55:08;;;;;;;20.60;13.10;;;4.40;99.90;;;;;;5154426;27;20058;-80
2021/12/09 13:57:39;;;;;;;19.10;13.13;;;4.40;99.90;;;;;;5154748;27;20031;-81
2021/12/09 14:00:11;;;;;;;18.63;14.43;;;4.50;99.90;;;;;;5154692;27;20386;-81
2021/12/09 14:02:38;;;;;;;20.13;13.88;;;4.40;99.90;;;;;;5155101;27;20042;-82
2021/12/09 14:05:05;;;;;;;17.63;12.70;;;4.40;99.90;;;;;;5154386;27;20046;-81
2021/12/09 14:07:42;;;;;;;19.38;12.85;;;4.40;99.90;;;;;;5154894;27;20129;-82
2021/12/09 14:10:13;;;;;;;21.25;13.63;;;4.40;99.90;;;;;;5154468;27;20402;-81
2021/12/09 14:12:46;;;;;;;19.77;14.02;;;4.40;99.90;;;;;;5154679;27;20060;-82
2021/12/09 14:15:18;;;;;;;18.73;13.02;;;4.40;99.90;;;;;;5153694;27;20057;-80